sensor_id;sensor_type;location;lat;lon;timestamp;P1;durP1;ratioP1;P2;durP2;ratioP2
15841;SDS011;8021;48.022;11.812;2023-04-24T00:02:22;0.30;;;0.30;;
15841;SDS011;8021;48.022;11.812;2023-04-24T00:04:50;0.30;;;0.30;;
15841;SDS011;8021;48.022;11.812;2023-04-24T00:07:17;0.43;;;0.43;;
15841;SDS011;8021;48.022;11.812;2023-04-24T00:09:46;0.30;;;0.30;;
15841;SDS011;8021;48.022;11.812;2023-04-24T00:12:14;0.30;;;0.30;;
15841;SDS011;8021;48.022;11.812;2023-04-24T00:14:42;0.40;;;0.40;;
15841;SDS011;8021;48.022;11.812;2023-04-24T00:17:09;0.40;;;0.40;;
15841;SDS011;8021;48.022;11.812;2023-04-24T00:19:37;0.32;;;0.32;;
15841;SDS011;8021;48.022;11.812;2023-04-24T00:22:05;0.40;;;0.40;;
15841;SDS011;8021;48.022;11.812;2023-04-24T00:24:32;0.30;;;0.30;;
15841;SDS011;8021;48.022;11.812;2023-04-24T00:26:59;0.30;;;0.30;;
15841;SDS011;8021;48.022;11.812;2023-04-24T00:29:30;0.50;;;0.50;;
15841;SDS011;8021;48.022;11.812;2023-04-24T00:31:57;0.30;;;0.30;;
15841;SDS011;8021;48.022;11.812;2023-04-24T00:34:25;0.40;;;0.40;;
15841;SDS011;8021;48.022;11.812;2023-04-24T00:36:52;0.30;;;0.30;;
15841;SDS011;8021;48.022;11.812;2023-04-24T00:39:21;0.40;;;0.40;;
15841;SDS011;8021;48.022;11.812;2023-04-24T00:41:49;0.40;;;0.40;;
15841;SDS011;8021;48.022;11.812;2023-04-24T00:44:17;0.30;;;0.30;;
15841;SDS011;8021;48.022;11.812;2023-04-24T00:46:45;0.30;;;0.30;;
15841;SDS011;8021;48.022;11.812;2023-04-24T00:49:13;0.40;;;0.40;;
15841;SDS011;8021;48.022;11.812;2023-04-24T00:51:41;0.50;;;0.50;;
15841;SDS011;8021;48.022;11.812;2023-04-24T00:54:12;0.40;;;0.40;;
15841;SDS011;8021;48.022;11.812;2023-04-24T00:56:39;0.40;;;0.40;;
15841;SDS011;8021;48.022;11.812;2023-04-24T00:59:09;0.38;;;0.38;;
15841;SDS011;8021;48.022;11.812;2023-04-24T01:01:37;0.35;;;0.35;;
15841;SDS011;8021;48.022;11.812;2023-04-24T01:04:09;0.40;;;0.40;;
15841;SDS011;8021;48.022;11.812;2023-04-24T01:06:39;0.35;;;0.35;;
15841;SDS011;8021;48.022;11.812;2023-04-24T01:09:07;0.30;;;0.30;;
15841;SDS011;8021;48.022;11.812;2023-04-24T01:11:35;0.40;;;0.40;;
15841;SDS011;8021;48.022;11.812;2023-04-24T01:14:04;0.30;;;0.30;;
15841;SDS011;8021;48.022;11.812;2023-04-24T01:16:31;0.40;;;0.40;;
15841;SDS011;8021;48.022;11.812;2023-04-24T01:19:00;0.35;;;0.35;;
15841;SDS011;8021;48.022;11.812;2023-04-24T01:21:28;0.30;;;0.30;;
15841;SDS011;8021;48.022;11.812;2023-04-24T01:23:58;0.40;;;0.40;;
15841;SDS011;8021;48.022;11.812;2023-04-24T01:26:26;0.40;;;0.40;;
15841;SDS011;8021;48.022;11.812;2023-04-24T01:28:53;0.40;;;0.40;;
15841;SDS011;8021;48.022;11.812;2023-04-24T01:31:21;0.35;;;0.35;;
15841;SDS011;8021;48.022;11.812;2023-04-24T01:33:48;0.30;;;0.30;;
15841;SDS011;8021;48.022;11.812;2023-04-24T01:36:16;0.43;;;0.43;;
15841;SDS011;8021;48.022;11.812;2023-04-24T01:38:44;0.35;;;0.35;;
15841;SDS011;8021;48.022;11.812;2023-04-24T01:41:12;0.30;;;0.30;;
15841;SDS011;8021;48.022;11.812;2023-04-24T01:43:40;0.40;;;0.40;;
15841;SDS011;8021;48.022;11.812;2023-04-24T01:46:08;0.30;;;0.30;;
15841;SDS011;8021;48.022;11.812;2023-04-24T01:48:35;0.40;;;0.40;;
15841;SDS011;8021;48.022;11.812;2023-04-24T01:51:03;0.30;;;0.30;;
15841;SDS011;8021;48.022;11.812;2023-04-24T01:53:30;0.40;;;0.40;;
15841;SDS011;8021;48.022;11.812;2023-04-24T01:55:58;0.40;;;0.40;;
15841;SDS011;8021;48.022;11.812;2023-04-24T01:58:27;0.30;;;0.30;;
15841;SDS011;8021;48.022;11.812;2023-04-24T02:00:55;0.40;;;0.40;;
15841;SDS011;8021;48.022;11.812;2023-04-24T02:03:24;0.50;;;0.50;;
15841;SDS011;8021;48.022;11.812;2023-04-24T02:05:52;0.40;;;0.40;;
15841;SDS011;8021;48.022;11.812;2023-04-24T02:08:19;0.50;;;0.50;;
15841;SDS011;8021;48.022;11.812;2023-04-24T02:10:48;0.40;;;0.40;;
15841;SDS011;8021;48.022;11.812;2023-04-24T02:13:16;0.30;;;0.30;;
15841;SDS011;8021;48.022;11.812;2023-04-24T02:15:44;0.40;;;0.40;;
15841;SDS011;8021;48.022;11.812;2023-04-24T02:18:12;0.40;;;0.40;;
15841;SDS011;8021;48.022;11.812;2023-04-24T02:20:39;0.40;;;0.40;;
15841;SDS011;8021;48.022;11.812;2023-04-24T02:23:07;0.38;;;0.38;;
15841;SDS011;8021;48.022;11.812;2023-04-24T02:25:34;0.50;;;0.50;;
15841;SDS011;8021;48.022;11.812;2023-04-24T02:28:02;0.30;;;0.30;;
15841;SDS011;8021;48.022;11.812;2023-04-24T02:30:29;0.38;;;0.38;;
15841;SDS011;8021;48.022;11.812;2023-04-24T02:32:58;0.40;;;0.40;;
15841;SDS011;8021;48.022;11.812;2023-04-24T02:35:26;0.40;;;0.40;;
15841;SDS011;8021;48.022;11.812;2023-04-24T02:37:54;0.40;;;0.40;;
15841;SDS011;8021;48.022;11.812;2023-04-24T02:40:21;0.30;;;0.30;;
15841;SDS011;8021;48.022;11.812;2023-04-24T02:42:48;0.38;;;0.38;;
15841;SDS011;8021;48.022;11.812;2023-04-24T02:45:16;0.35;;;0.35;;
15841;SDS011;8021;48.022;11.812;2023-04-24T02:47:44;0.30;;;0.30;;
15841;SDS011;8021;48.022;11.812;2023-04-24T02:50:13;0.40;;;0.40;;
15841;SDS011;8021;48.022;11.812;2023-04-24T02:52:40;0.40;;;0.40;;
15841;SDS011;8021;48.022;11.812;2023-04-24T02:55:08;0.40;;;0.40;;
15841;SDS011;8021;48.022;11.812;2023-04-24T02:57:35;0.35;;;0.35;;
15841;SDS011;8021;48.022;11.812;2023-04-24T03:00:03;0.30;;;0.30;;
15841;SDS011;8021;48.022;11.812;2023-04-24T03:02:34;0.40;;;0.40;;
15841;SDS011;8021;48.022;11.812;2023-04-24T03:05:02;0.32;;;0.32;;
15841;SDS011;8021;48.022;11.812;2023-04-24T03:07:31;0.30;;;0.30;;
15841;SDS011;8021;48.022;11.812;2023-04-24T03:09:59;0.32;;;0.32;;
15841;SDS011;8021;48.022;11.812;2023-04-24T03:12:27;0.35;;;0.35;;
15841;SDS011;8021;48.022;11.812;2023-04-24T03:14:54;0.30;;;0.30;;
15841;SDS011;8021;48.022;11.812;2023-04-24T03:17:22;0.40;;;0.40;;
15841;SDS011;8021;48.022;11.812;2023-04-24T03:19:49;0.30;;;0.30;;
15841;SDS011;8021;48.022;11.812;2023-04-24T03:22:17;0.40;;;0.40;;
15841;SDS011;8021;48.022;11.812;2023-04-24T03:24:46;0.40;;;0.40;;
15841;SDS011;8021;48.022;11.812;2023-04-24T03:27:16;0.30;;;0.30;;
15841;SDS011;8021;48.022;11.812;2023-04-24T03:29:51;0.30;;;0.30;;
15841;SDS011;8021;48.022;11.812;2023-04-24T03:32:25;0.40;;;0.40;;
15841;SDS011;8021;48.022;11.812;2023-04-24T03:34:53;0.40;;;0.40;;
15841;SDS011;8021;48.022;11.812;2023-04-24T03:37:20;0.30;;;0.30;;
15841;SDS011;8021;48.022;11.812;2023-04-24T03:40:03;0.30;;;0.30;;
15841;SDS011;8021;48.022;11.812;2023-04-24T03:42:34;0.38;;;0.38;;
15841;SDS011;8021;48.022;11.812;2023-04-24T03:45:05;0.35;;;0.35;;
15841;SDS011;8021;48.022;11.812;2023-04-24T03:47:35;0.32;;;0.32;;
15841;SDS011;8021;48.022;11.812;2023-04-24T03:50:04;0.40;;;0.40;;
15841;SDS011;8021;48.022;11.812;2023-04-24T03:52:33;0.38;;;0.38;;
15841;SDS011;8021;48.022;11.812;2023-04-24T03:55:03;0.40;;;0.40;;
15841;SDS011;8021;48.022;11.812;2023-04-24T03:57:36;0.47;;;0.47;;
15841;SDS011;8021;48.022;11.812;2023-04-24T04:00:16;0.40;;;0.40;;
15841;SDS011;8021;48.022;11.812;2023-04-24T04:02:51;0.40;;;0.40;;
15841;SDS011;8021;48.022;11.812;2023-04-24T04:05:19;0.30;;;0.30;;
15841;SDS011;8021;48.022;11.812;2023-04-24T04:07:47;0.43;;;0.43;;
15841;SDS011;8021;48.022;11.812;2023-04-24T04:10:16;0.43;;;0.43;;
15841;SDS011;8021;48.022;11.812;2023-04-24T04:12:43;0.45;;;0.45;;
15841;SDS011;8021;48.022;11.812;2023-04-24T04:15:11;0.30;;;0.30;;
15841;SDS011;8021;48.022;11.812;2023-04-24T04:17:39;0.40;;;0.40;;
15841;SDS011;8021;48.022;11.812;2023-04-24T04:20:07;0.40;;;0.40;;
15841;SDS011;8021;48.022;11.812;2023-04-24T04:22:38;0.40;;;0.40;;
15841;SDS011;8021;48.022;11.812;2023-04-24T04:25:11;0.40;;;0.40;;
15841;SDS011;8021;48.022;11.812;2023-04-24T04:27:41;0.50;;;0.50;;
15841;SDS011;8021;48.022;11.812;2023-04-24T04:30:11;0.40;;;0.40;;
15841;SDS011;8021;48.022;11.812;2023-04-24T04:32:48;0.35;;;0.35;;
15841;SDS011;8021;48.022;11.812;2023-04-24T04:35:16;0.40;;;0.40;;
15841;SDS011;8021;48.022;11.812;2023-04-24T04:37:44;0.30;;;0.30;;
15841;SDS011;8021;48.022;11.812;2023-04-24T04:40:24;0.45;;;0.45;;
15841;SDS011;8021;48.022;11.812;2023-04-24T04:42:58;0.40;;;0.40;;
15841;SDS011;8021;48.022;11.812;2023-04-24T04:45:30;0.30;;;0.30;;
15841;SDS011;8021;48.022;11.812;2023-04-24T04:48:34;0.35;;;0.35;;
15841;SDS011;8021;48.022;11.812;2023-04-24T04:51:04;0.40;;;0.40;;
15841;SDS011;8021;48.022;11.812;2023-04-24T04:53:32;0.40;;;0.40;;
15841;SDS011;8021;48.022;11.812;2023-04-24T04:56:00;0.40;;;0.40;;
15841;SDS011;8021;48.022;11.812;2023-04-24T04:58:36;0.30;;;0.30;;
15841;SDS011;8021;48.022;11.812;2023-04-24T05:01:06;0.40;;;0.40;;
15841;SDS011;8021;48.022;11.812;2023-04-24T05:03:40;0.40;;;0.40;;
15841;SDS011;8021;48.022;11.812;2023-04-24T05:06:11;0.30;;;0.30;;
15841;SDS011;8021;48.022;11.812;2023-04-24T05:08:40;0.40;;;0.40;;
15841;SDS011;8021;48.022;11.812;2023-04-24T05:11:13;0.30;;;0.30;;
15841;SDS011;8021;48.022;11.812;2023-04-24T05:13:42;0.40;;;0.40;;
15841;SDS011;8021;48.022;11.812;2023-04-24T05:16:17;0.35;;;0.35;;
15841;SDS011;8021;48.022;11.812;2023-04-24T05:18:46;0.40;;;0.40;;
15841;SDS011;8021;48.022;11.812;2023-04-24T05:21:17;0.50;;;0.50;;
15841;SDS011;8021;48.022;11.812;2023-04-24T05:23:48;0.30;;;0.30;;
15841;SDS011;8021;48.022;11.812;2023-04-24T05:26:25;0.40;;;0.40;;
15841;SDS011;8021;48.022;11.812;2023-04-24T05:28:56;0.40;;;0.40;;
15841;SDS011;8021;48.022;11.812;2023-04-24T05:31:23;0.40;;;0.40;;
15841;SDS011;8021;48.022;11.812;2023-04-24T05:33:51;0.30;;;0.30;;
15841;SDS011;8021;48.022;11.812;2023-04-24T05:36:22;0.38;;;0.38;;
15841;SDS011;8021;48.022;11.812;2023-04-24T05:38:50;0.30;;;0.30;;
15841;SDS011;8021;48.022;11.812;2023-04-24T05:41:17;0.30;;;0.30;;
15841;SDS011;8021;48.022;11.812;2023-04-24T05:43:45;0.30;;;0.30;;
15841;SDS011;8021;48.022;11.812;2023-04-24T05:46:13;0.30;;;0.30;;
15841;SDS011;8021;48.022;11.812;2023-04-24T05:48:41;0.40;;;0.40;;
15841;SDS011;8021;48.022;11.812;2023-04-24T05:51:09;0.30;;;0.30;;
15841;SDS011;8021;48.022;11.812;2023-04-24T05:53:37;0.30;;;0.30;;
15841;SDS011;8021;48.022;11.812;2023-04-24T05:56:05;0.40;;;0.40;;
15841;SDS011;8021;48.022;11.812;2023-04-24T05:58:34;0.30;;;0.30;;
15841;SDS011;8021;48.022;11.812;2023-04-24T06:01:01;0.40;;;0.40;;
15841;SDS011;8021;48.022;11.812;2023-04-24T06:03:31;0.30;;;0.30;;
15841;SDS011;8021;48.022;11.812;2023-04-24T06:06:01;0.40;;;0.40;;
15841;SDS011;8021;48.022;11.812;2023-04-24T06:08:29;0.30;;;0.30;;
15841;SDS011;8021;48.022;11.812;2023-04-24T06:10:57;0.30;;;0.30;;
15841;SDS011;8021;48.022;11.812;2023-04-24T06:13:25;0.35;;;0.35;;
15841;SDS011;8021;48.022;11.812;2023-04-24T06:16:18;0.30;;;0.30;;
15841;SDS011;8021;48.022;11.812;2023-04-24T06:18:54;0.30;;;0.30;;
15841;SDS011;8021;48.022;11.812;2023-04-24T06:21:21;0.30;;;0.30;;
15841;SDS011;8021;48.022;11.812;2023-04-24T06:23:49;0.40;;;0.40;;
15841;SDS011;8021;48.022;11.812;2023-04-24T06:26:16;0.38;;;0.38;;
15841;SDS011;8021;48.022;11.812;2023-04-24T06:28:44;0.30;;;0.30;;
15841;SDS011;8021;48.022;11.812;2023-04-24T06:31:11;0.30;;;0.30;;
15841;SDS011;8021;48.022;11.812;2023-04-24T06:33:39;0.40;;;0.40;;
15841;SDS011;8021;48.022;11.812;2023-04-24T06:36:09;0.30;;;0.30;;
15841;SDS011;8021;48.022;11.812;2023-04-24T06:38:37;0.43;;;0.43;;
15841;SDS011;8021;48.022;11.812;2023-04-24T06:41:05;0.30;;;0.30;;
15841;SDS011;8021;48.022;11.812;2023-04-24T06:43:32;0.40;;;0.40;;
15841;SDS011;8021;48.022;11.812;2023-04-24T06:46:00;0.30;;;0.30;;
15841;SDS011;8021;48.022;11.812;2023-04-24T06:48:29;0.30;;;0.30;;
15841;SDS011;8021;48.022;11.812;2023-04-24T06:50:57;0.30;;;0.30;;
15841;SDS011;8021;48.022;11.812;2023-04-24T06:53:26;0.40;;;0.40;;
15841;SDS011;8021;48.022;11.812;2023-04-24T06:55:53;0.30;;;0.30;;
15841;SDS011;8021;48.022;11.812;2023-04-24T06:58:21;0.30;;;0.30;;
15841;SDS011;8021;48.022;11.812;2023-04-24T07:00:48;0.30;;;0.30;;
15841;SDS011;8021;48.022;11.812;2023-04-24T07:03:16;0.30;;;0.30;;
15841;SDS011;8021;48.022;11.812;2023-04-24T07:05:43;0.30;;;0.30;;
15841;SDS011;8021;48.022;11.812;2023-04-24T07:08:12;0.40;;;0.40;;
15841;SDS011;8021;48.022;11.812;2023-04-24T07:10:41;0.30;;;0.30;;
15841;SDS011;8021;48.022;11.812;2023-04-24T07:13:08;0.30;;;0.30;;
15841;SDS011;8021;48.022;11.812;2023-04-24T07:15:36;0.30;;;0.30;;
15841;SDS011;8021;48.022;11.812;2023-04-24T07:18:03;0.20;;;0.20;;
15841;SDS011;8021;48.022;11.812;2023-04-24T07:20:31;0.20;;;0.20;;
15841;SDS011;8021;48.022;11.812;2023-04-24T07:22:59;0.30;;;0.20;;
15841;SDS011;8021;48.022;11.812;2023-04-24T07:25:26;0.28;;;0.20;;
15841;SDS011;8021;48.022;11.812;2023-04-24T07:27:55;0.30;;;0.28;;
15841;SDS011;8021;48.022;11.812;2023-04-24T07:30:23;0.20;;;0.20;;
15841;SDS011;8021;48.022;11.812;2023-04-24T07:32:50;0.25;;;0.25;;
15841;SDS011;8021;48.022;11.812;2023-04-24T07:35:18;0.20;;;0.20;;
15841;SDS011;8021;48.022;11.812;2023-04-24T07:37:46;0.30;;;0.25;;
15841;SDS011;8021;48.022;11.812;2023-04-24T07:40:13;0.20;;;0.20;;
15841;SDS011;8021;48.022;11.812;2023-04-24T07:42:41;0.30;;;0.25;;
15841;SDS011;8021;48.022;11.812;2023-04-24T07:45:11;0.20;;;0.20;;
15841;SDS011;8021;48.022;11.812;2023-04-24T07:47:38;0.20;;;0.20;;
15841;SDS011;8021;48.022;11.812;2023-04-24T07:50:06;0.20;;;0.20;;
15841;SDS011;8021;48.022;11.812;2023-04-24T07:52:34;0.30;;;0.30;;
15841;SDS011;8021;48.022;11.812;2023-04-24T07:55:01;0.20;;;0.20;;
15841;SDS011;8021;48.022;11.812;2023-04-24T07:57:29;0.30;;;0.20;;
15841;SDS011;8021;48.022;11.812;2023-04-24T07:59:56;0.20;;;0.20;;
15841;SDS011;8021;48.022;11.812;2023-04-24T08:02:25;0.20;;;0.20;;
15841;SDS011;8021;48.022;11.812;2023-04-24T08:04:53;0.20;;;0.20;;
15841;SDS011;8021;48.022;11.812;2023-04-24T08:07:24;0.20;;;0.20;;
15841;SDS011;8021;48.022;11.812;2023-04-24T08:09:51;0.30;;;0.30;;
15841;SDS011;8021;48.022;11.812;2023-04-24T08:12:19;0.20;;;0.20;;
15841;SDS011;8021;48.022;11.812;2023-04-24T08:14:46;0.20;;;0.20;;
15841;SDS011;8021;48.022;11.812;2023-04-24T08:17:14;0.20;;;0.20;;
15841;SDS011;8021;48.022;11.812;2023-04-24T08:19:43;0.20;;;0.20;;
15841;SDS011;8021;48.022;11.812;2023-04-24T08:22:14;0.20;;;0.20;;
15841;SDS011;8021;48.022;11.812;2023-04-24T08:24:42;0.20;;;0.20;;
15841;SDS011;8021;48.022;11.812;2023-04-24T08:27:09;0.30;;;0.20;;
15841;SDS011;8021;48.022;11.812;2023-04-24T08:29:37;0.28;;;0.20;;
15841;SDS011;8021;48.022;11.812;2023-04-24T08:32:05;0.20;;;0.20;;
15841;SDS011;8021;48.022;11.812;2023-04-24T08:34:33;0.20;;;0.20;;
15841;SDS011;8021;48.022;11.812;2023-04-24T08:37:02;0.30;;;0.25;;
15841;SDS011;8021;48.022;11.812;2023-04-24T08:39:29;0.25;;;0.20;;
15841;SDS011;8021;48.022;11.812;2023-04-24T08:41:57;0.20;;;0.20;;
15841;SDS011;8021;48.022;11.812;2023-04-24T08:44:31;0.20;;;0.20;;
15841;SDS011;8021;48.022;11.812;2023-04-24T08:46:59;0.30;;;0.30;;
15841;SDS011;8021;48.022;11.812;2023-04-24T08:49:28;0.30;;;0.20;;
15841;SDS011;8021;48.022;11.812;2023-04-24T08:51:55;0.25;;;0.20;;
15841;SDS011;8021;48.022;11.812;2023-04-24T08:54:25;0.30;;;0.30;;
15841;SDS011;8021;48.022;11.812;2023-04-24T08:56:53;0.20;;;0.20;;
15841;SDS011;8021;48.022;11.812;2023-04-24T08:59:21;0.30;;;0.25;;
15841;SDS011;8021;48.022;11.812;2023-04-24T09:01:49;0.30;;;0.20;;
15841;SDS011;8021;48.022;11.812;2023-04-24T09:04:18;0.30;;;0.25;;
15841;SDS011;8021;48.022;11.812;2023-04-24T09:06:48;0.30;;;0.30;;
15841;SDS011;8021;48.022;11.812;2023-04-24T09:09:16;0.30;;;0.30;;
15841;SDS011;8021;48.022;11.812;2023-04-24T09:11:45;0.30;;;0.30;;
15841;SDS011;8021;48.022;11.812;2023-04-24T09:14:13;0.22;;;0.20;;
15841;SDS011;8021;48.022;11.812;2023-04-24T09:16:41;0.30;;;0.30;;
15841;SDS011;8021;48.022;11.812;2023-04-24T09:19:08;0.30;;;0.30;;
15841;SDS011;8021;48.022;11.812;2023-04-24T09:21:36;0.30;;;0.20;;
15841;SDS011;8021;48.022;11.812;2023-04-24T09:24:05;0.30;;;0.20;;
15841;SDS011;8021;48.022;11.812;2023-04-24T09:26:34;0.30;;;0.20;;
15841;SDS011;8021;48.022;11.812;2023-04-24T09:29:03;0.40;;;0.40;;
15841;SDS011;8021;48.022;11.812;2023-04-24T09:31:31;0.30;;;0.30;;
15841;SDS011;8021;48.022;11.812;2023-04-24T09:34:01;0.30;;;0.30;;
15841;SDS011;8021;48.022;11.812;2023-04-24T09:36:33;0.25;;;0.22;;
15841;SDS011;8021;48.022;11.812;2023-04-24T09:39:03;0.30;;;0.20;;
15841;SDS011;8021;48.022;11.812;2023-04-24T09:41:31;0.40;;;0.40;;
15841;SDS011;8021;48.022;11.812;2023-04-24T09:46:30;0.30;;;0.20;;
15841;SDS011;8021;48.022;11.812;2023-04-24T09:49:02;0.30;;;0.30;;
15841;SDS011;8021;48.022;11.812;2023-04-24T09:51:35;0.20;;;0.20;;
15841;SDS011;8021;48.022;11.812;2023-04-24T09:54:03;0.20;;;0.20;;
15841;SDS011;8021;48.022;11.812;2023-04-24T09:56:32;0.20;;;0.20;;
15841;SDS011;8021;48.022;11.812;2023-04-24T09:59:06;0.20;;;0.20;;
15841;SDS011;8021;48.022;11.812;2023-04-24T10:01:34;0.20;;;0.20;;
15841;SDS011;8021;48.022;11.812;2023-04-24T10:04:04;0.20;;;0.20;;
15841;SDS011;8021;48.022;11.812;2023-04-24T10:06:33;0.20;;;0.20;;
15841;SDS011;8021;48.022;11.812;2023-04-24T10:09:00;0.20;;;0.20;;
15841;SDS011;8021;48.022;11.812;2023-04-24T10:11:28;0.28;;;0.28;;
15841;SDS011;8021;48.022;11.812;2023-04-24T10:13:57;0.20;;;0.17;;
15841;SDS011;8021;48.022;11.812;2023-04-24T10:16:24;0.20;;;0.20;;
15841;SDS011;8021;48.022;11.812;2023-04-24T10:18:54;0.20;;;0.20;;
15841;SDS011;8021;48.022;11.812;2023-04-24T10:21:22;0.20;;;0.20;;
15841;SDS011;8021;48.022;11.812;2023-04-24T10:23:49;0.20;;;0.20;;
15841;SDS011;8021;48.022;11.812;2023-04-24T10:26:17;0.20;;;0.20;;
15841;SDS011;8021;48.022;11.812;2023-04-24T10:28:46;0.20;;;0.20;;
15841;SDS011;8021;48.022;11.812;2023-04-24T10:31:14;0.20;;;0.20;;
15841;SDS011;8021;48.022;11.812;2023-04-24T10:33:42;0.20;;;0.20;;
15841;SDS011;8021;48.022;11.812;2023-04-24T10:36:11;0.20;;;0.20;;
15841;SDS011;8021;48.022;11.812;2023-04-24T10:38:40;0.20;;;0.20;;
15841;SDS011;8021;48.022;11.812;2023-04-24T10:41:09;0.20;;;0.15;;
15841;SDS011;8021;48.022;11.812;2023-04-24T10:43:41;0.20;;;0.20;;
15841;SDS011;8021;48.022;11.812;2023-04-24T10:46:09;0.20;;;0.20;;
15841;SDS011;8021;48.022;11.812;2023-04-24T10:48:41;0.20;;;0.20;;
15841;SDS011;8021;48.022;11.812;2023-04-24T10:51:12;0.10;;;0.10;;
15841;SDS011;8021;48.022;11.812;2023-04-24T10:53:40;0.20;;;0.20;;
15841;SDS011;8021;48.022;11.812;2023-04-24T10:56:08;0.20;;;0.20;;
15841;SDS011;8021;48.022;11.812;2023-04-24T10:58:37;0.20;;;0.20;;
15841;SDS011;8021;48.022;11.812;2023-04-24T11:01:06;0.30;;;0.20;;
15841;SDS011;8021;48.022;11.812;2023-04-24T11:03:34;0.20;;;0.20;;
15841;SDS011;8021;48.022;11.812;2023-04-24T11:06:03;0.20;;;0.20;;
15841;SDS011;8021;48.022;11.812;2023-04-24T11:08:37;0.20;;;0.20;;
15841;SDS011;8021;48.022;11.812;2023-04-24T11:11:08;0.20;;;0.10;;
15841;SDS011;8021;48.022;11.812;2023-04-24T11:16:25;0.30;;;0.20;;
15841;SDS011;8021;48.022;11.812;2023-04-24T11:18:59;0.30;;;0.20;;
15841;SDS011;8021;48.022;11.812;2023-04-24T11:21:30;0.20;;;0.20;;
15841;SDS011;8021;48.022;11.812;2023-04-24T11:23:59;0.30;;;0.22;;
15841;SDS011;8021;48.022;11.812;2023-04-24T11:26:47;0.30;;;0.28;;
15841;SDS011;8021;48.022;11.812;2023-04-24T11:29:15;0.30;;;0.20;;
15841;SDS011;8021;48.022;11.812;2023-04-24T11:31:46;0.30;;;0.30;;
15841;SDS011;8021;48.022;11.812;2023-04-24T11:34:17;0.20;;;0.20;;
15841;SDS011;8021;48.022;11.812;2023-04-24T11:36:45;0.20;;;0.20;;
15841;SDS011;8021;48.022;11.812;2023-04-24T11:39:14;0.30;;;0.30;;
15841;SDS011;8021;48.022;11.812;2023-04-24T11:41:42;0.20;;;0.20;;
15841;SDS011;8021;48.022;11.812;2023-04-24T11:44:09;0.30;;;0.20;;
15841;SDS011;8021;48.022;11.812;2023-04-24T11:46:37;0.20;;;0.20;;
15841;SDS011;8021;48.022;11.812;2023-04-24T11:49:06;0.20;;;0.20;;
15841;SDS011;8021;48.022;11.812;2023-04-24T11:51:34;0.28;;;0.28;;
15841;SDS011;8021;48.022;11.812;2023-04-24T11:54:17;0.30;;;0.20;;
15841;SDS011;8021;48.022;11.812;2023-04-24T11:56:45;0.28;;;0.20;;
15841;SDS011;8021;48.022;11.812;2023-04-24T11:59:14;0.20;;;0.20;;
15841;SDS011;8021;48.022;11.812;2023-04-24T12:01:44;0.20;;;0.20;;
15841;SDS011;8021;48.022;11.812;2023-04-24T12:04:12;0.20;;;0.20;;
15841;SDS011;8021;48.022;11.812;2023-04-24T12:06:46;0.20;;;0.20;;
15841;SDS011;8021;48.022;11.812;2023-04-24T12:09:27;0.20;;;0.20;;
15841;SDS011;8021;48.022;11.812;2023-04-24T12:11:55;0.20;;;0.20;;
15841;SDS011;8021;48.022;11.812;2023-04-24T12:14:23;0.20;;;0.20;;
15841;SDS011;8021;48.022;11.812;2023-04-24T12:16:50;0.20;;;0.20;;
15841;SDS011;8021;48.022;11.812;2023-04-24T12:19:21;0.20;;;0.20;;
15841;SDS011;8021;48.022;11.812;2023-04-24T12:22:00;0.20;;;0.20;;
15841;SDS011;8021;48.022;11.812;2023-04-24T12:24:29;0.20;;;0.20;;
15841;SDS011;8021;48.022;11.812;2023-04-24T12:26:57;0.20;;;0.20;;
15841;SDS011;8021;48.022;11.812;2023-04-24T12:29:25;0.30;;;0.30;;
15841;SDS011;8021;48.022;11.812;2023-04-24T12:31:52;0.30;;;0.20;;
15841;SDS011;8021;48.022;11.812;2023-04-24T12:34:20;0.20;;;0.20;;
15841;SDS011;8021;48.022;11.812;2023-04-24T12:36:48;0.30;;;0.28;;
15841;SDS011;8021;48.022;11.812;2023-04-24T12:39:15;0.30;;;0.30;;
15841;SDS011;8021;48.022;11.812;2023-04-24T12:44:33;0.30;;;0.30;;
15841;SDS011;8021;48.022;11.812;2023-04-24T12:47:03;0.30;;;0.30;;
15841;SDS011;8021;48.022;11.812;2023-04-24T12:49:30;0.32;;;0.32;;
15841;SDS011;8021;48.022;11.812;2023-04-24T12:51:58;0.30;;;0.30;;
15841;SDS011;8021;48.022;11.812;2023-04-24T12:54:25;0.40;;;0.40;;
15841;SDS011;8021;48.022;11.812;2023-04-24T12:56:53;0.30;;;0.30;;
15841;SDS011;8021;48.022;11.812;2023-04-24T12:59:21;0.30;;;0.30;;
15841;SDS011;8021;48.022;11.812;2023-04-24T13:01:50;0.30;;;0.30;;
15841;SDS011;8021;48.022;11.812;2023-04-24T13:04:17;0.40;;;0.40;;
15841;SDS011;8021;48.022;11.812;2023-04-24T13:06:45;0.30;;;0.30;;
15841;SDS011;8021;48.022;11.812;2023-04-24T13:09:13;0.30;;;0.30;;
15841;SDS011;8021;48.022;11.812;2023-04-24T13:11:40;0.30;;;0.30;;
15841;SDS011;8021;48.022;11.812;2023-04-24T13:14:07;0.30;;;0.30;;
15841;SDS011;8021;48.022;11.812;2023-04-24T13:16:35;0.35;;;0.35;;
15841;SDS011;8021;48.022;11.812;2023-04-24T13:19:04;0.30;;;0.30;;
15841;SDS011;8021;48.022;11.812;2023-04-24T13:21:31;0.30;;;0.30;;
15841;SDS011;8021;48.022;11.812;2023-04-24T13:23:59;0.30;;;0.30;;
15841;SDS011;8021;48.022;11.812;2023-04-24T13:26:26;0.40;;;0.40;;
15841;SDS011;8021;48.022;11.812;2023-04-24T13:28:54;0.30;;;0.20;;
15841;SDS011;8021;48.022;11.812;2023-04-24T13:31:21;0.40;;;0.40;;
15841;SDS011;8021;48.022;11.812;2023-04-24T13:33:49;0.30;;;0.20;;
15841;SDS011;8021;48.022;11.812;2023-04-24T13:36:18;0.30;;;0.30;;
15841;SDS011;8021;48.022;11.812;2023-04-24T13:38:45;0.30;;;0.30;;
15841;SDS011;8021;48.022;11.812;2023-04-24T13:41:13;0.20;;;0.20;;
15841;SDS011;8021;48.022;11.812;2023-04-24T13:43:40;0.30;;;0.20;;
15841;SDS011;8021;48.022;11.812;2023-04-24T13:46:09;0.30;;;0.20;;
15841;SDS011;8021;48.022;11.812;2023-04-24T13:48:37;0.30;;;0.30;;
15841;SDS011;8021;48.022;11.812;2023-04-24T13:51:04;0.30;;;0.20;;
15841;SDS011;8021;48.022;11.812;2023-04-24T13:53:33;0.30;;;0.20;;
15841;SDS011;8021;48.022;11.812;2023-04-24T13:56:04;0.30;;;0.30;;
15841;SDS011;8021;48.022;11.812;2023-04-24T13:58:32;0.20;;;0.20;;
15841;SDS011;8021;48.022;11.812;2023-04-24T14:00:59;0.30;;;0.28;;
15841;SDS011;8021;48.022;11.812;2023-04-24T14:03:27;0.30;;;0.28;;
15841;SDS011;8021;48.022;11.812;2023-04-24T14:05:54;0.30;;;0.20;;
15841;SDS011;8021;48.022;11.812;2023-04-24T14:08:22;0.30;;;0.20;;
15841;SDS011;8021;48.022;11.812;2023-04-24T14:10:51;0.20;;;0.20;;
15841;SDS011;8021;48.022;11.812;2023-04-24T14:13:18;0.30;;;0.30;;
15841;SDS011;8021;48.022;11.812;2023-04-24T14:15:46;0.30;;;0.30;;
15841;SDS011;8021;48.022;11.812;2023-04-24T14:18:14;0.30;;;0.20;;
15841;SDS011;8021;48.022;11.812;2023-04-24T14:20:41;0.30;;;0.20;;
15841;SDS011;8021;48.022;11.812;2023-04-24T14:23:09;0.30;;;0.20;;
15841;SDS011;8021;48.022;11.812;2023-04-24T14:25:36;0.30;;;0.30;;
15841;SDS011;8021;48.022;11.812;2023-04-24T14:28:05;0.30;;;0.30;;
15841;SDS011;8021;48.022;11.812;2023-04-24T14:30:32;0.30;;;0.30;;
15841;SDS011;8021;48.022;11.812;2023-04-24T14:33:00;0.20;;;0.20;;
15841;SDS011;8021;48.022;11.812;2023-04-24T14:35:28;0.30;;;0.30;;
15841;SDS011;8021;48.022;11.812;2023-04-24T14:37:57;0.30;;;0.22;;
15841;SDS011;8021;48.022;11.812;2023-04-24T14:40:24;0.30;;;0.20;;
15841;SDS011;8021;48.022;11.812;2023-04-24T14:43:13;0.20;;;0.20;;
15841;SDS011;8021;48.022;11.812;2023-04-24T14:45:41;0.20;;;0.20;;
15841;SDS011;8021;48.022;11.812;2023-04-24T14:48:08;0.20;;;0.20;;
15841;SDS011;8021;48.022;11.812;2023-04-24T14:50:37;0.20;;;0.20;;
15841;SDS011;8021;48.022;11.812;2023-04-24T14:53:05;0.20;;;0.20;;
15841;SDS011;8021;48.022;11.812;2023-04-24T14:55:32;0.30;;;0.30;;
15841;SDS011;8021;48.022;11.812;2023-04-24T14:58:02;0.30;;;0.30;;
15841;SDS011;8021;48.022;11.812;2023-04-24T15:00:31;0.28;;;0.20;;
15841;SDS011;8021;48.022;11.812;2023-04-24T15:02:58;0.30;;;0.22;;
15841;SDS011;8021;48.022;11.812;2023-04-24T15:05:26;0.20;;;0.20;;
15841;SDS011;8021;48.022;11.812;2023-04-24T15:07:54;0.25;;;0.20;;